Time;durP1;ratioP1;P1;durP2;ratioP2;P2;SDS_P1;SDS_P2;PMS_P1;PMS_P2;Temp;Humidity;BMP_temperature;BMP_pressure;BME280_temperature;BME280_humidity;BME280_pressure;Samples;Min_cycle;Max_cycle;Signal;HPM_P1;HPM_P2
2022/01/18 02:24:17;;;;;;;5.57;1.40;;;7.30;99.90;;;;;;4917681;29;20625;-88
2022/01/18 02:26:54;;;;;;;5.70;1.70;;;7.30;99.90;;;;;;4921131;29;21063;-89
2022/01/18 02:29:23;;;;;;;4.77;1.40;;;7.30;99.90;;;;;;4910317;29;21009;-89
2022/01/18 02:31:51;;;;;;;3.80;1.27;;;7.30;99.90;;;;;;4912735;29;20522;-89
2022/01/18 02:34:20;;;;;;;4.50;1.20;;;7.30;99.90;;;;;;4912687;29;20458;-88
2022/01/18 02:36:48;;;;;;;6.77;1.53;;;7.50;99.90;;;;;;4912518;29;20537;-89
2022/01/18 02:39:20;;;;;;;4.77;1.90;;;7.40;99.90;;;;;;4916194;29;20898;-89
2022/01/18 02:41:52;;;;;;;4.50;1.43;;;7.50;99.90;;;;;;4908613;29;20474;-89
2022/01/18 02:44:17;;;;;;;4.43;1.40;;;7.30;99.90;;;;;;4915946;29;20475;-88
2022/01/18 02:46:43;;;;;;;6.17;1.43;;;7.30;99.90;;;;;;4916876;29;20559;-88
2022/01/18 02:49:09;;;;;;;7.20;1.60;;;7.60;99.90;;;;;;4914914;29;20295;-88
2022/01/18 02:51:35;;;;;;;4.17;1.33;;;7.40;99.90;;;;;;4911357;29;20201;-89
2022/01/18 02:54:04;;;;;;;5.77;1.50;;;7.60;99.90;;;;;;4916705;29;20185;-88
2022/01/18 02:56:34;;;;;;;3.40;1.03;;;7.40;99.90;;;;;;4917755;29;20472;-88
2022/01/18 02:59:14;;;;;;;3.83;1.00;;;7.40;99.90;;;;;;4911774;29;20472;-89
2022/01/18 03:04:25;;;;;;;2.47;1.07;;;7.60;99.90;;;;;;4913625;29;20475;-87
2022/01/18 03:06:51;;;;;;;6.13;1.60;;;7.40;99.90;;;;;;4929797;29;20455;-89
2022/01/18 03:09:16;;;;;;;3.27;1.20;;;7.70;99.90;;;;;;4934747;29;20460;-88
2022/01/18 03:11:43;;;;;;;3.17;1.30;;;7.40;99.90;;;;;;4921465;29;20260;-88
2022/01/18 03:14:09;;;;;;;2.00;1.07;;;7.50;99.90;;;;;;4926076;29;20201;-89
2022/01/18 03:16:35;;;;;;;4.30;1.00;;;7.50;99.90;;;;;;4906683;29;20539;-89
2022/01/18 03:19:03;;;;;;;2.83;1.10;;;7.50;99.90;;;;;;4919837;29;20923;-89
2022/01/18 03:21:29;;;;;;;2.87;0.90;;;7.60;99.90;;;;;;4930201;29;20508;-89
2022/01/18 03:24:10;;;;;;;9.30;1.27;;;7.70;99.90;;;;;;4920776;29;20578;-89
2022/01/18 03:28:04;;;;;;;6.27;1.20;;;7.80;99.90;;;;;;4909836;29;20185;-88
2022/01/18 03:29:23;;;;;;;2.50;1.00;;;7.60;99.90;;;;;;4907653;29;20473;-89
2022/01/18 03:31:49;;;;;;;3.60;1.60;;;7.70;99.90;;;;;;4916031;29;20449;-88
2022/01/18 03:34:15;;;;;;;3.40;1.17;;;7.50;99.90;;;;;;4911405;29;20302;-89
2022/01/18 03:36:40;;;;;;;7.97;1.30;;;7.50;99.90;;;;;;4919654;29;20245;-89
2022/01/18 03:39:06;;;;;;;5.13;1.50;;;7.70;99.90;;;;;;4910534;29;20224;-88
2022/01/18 03:41:32;;;;;;;6.10;1.50;;;7.60;99.90;;;;;;4917712;29;20185;-89
2022/01/18 03:43:58;;;;;;;5.10;1.10;;;7.50;99.90;;;;;;4910109;29;20976;-89
2022/01/18 03:46:24;;;;;;;3.43;0.80;;;7.60;99.90;;;;;;4913724;29;20283;-88
2022/01/18 03:48:54;;;;;;;6.33;1.63;;;7.70;99.90;;;;;;4912045;29;20217;-87
2022/01/18 03:51:22;;;;;;;3.30;1.03;;;7.70;99.90;;;;;;4924740;29;20445;-88
2022/01/18 03:53:51;;;;;;;2.00;0.83;;;7.80;99.90;;;;;;4910649;29;20988;-88
2022/01/18 03:56:17;;;;;;;4.73;1.30;;;7.60;99.90;;;;;;4912645;29;20933;-89
2022/01/18 03:58:43;;;;;;;3.47;0.93;;;7.90;99.90;;;;;;4915601;29;20526;-88
2022/01/18 04:01:09;;;;;;;3.70;1.57;;;7.40;99.90;;;;;;4910465;29;20453;-88
2022/01/18 04:03:34;;;;;;;4.73;1.57;;;7.70;99.90;;;;;;4914830;29;20248;-89
2022/01/18 04:06:03;;;;;;;2.90;1.17;;;7.90;99.90;;;;;;4928437;29;20196;-88
2022/01/18 04:08:28;;;;;;;3.40;1.10;;;7.70;99.90;;;;;;4906646;29;20276;-88
2022/01/18 04:10:57;;;;;;;5.30;1.83;;;7.80;99.90;;;;;;4911641;29;20473;-89
2022/01/18 04:13:22;;;;;;;1.83;0.90;;;7.40;99.90;;;;;;4911675;29;20638;-88
2022/01/18 04:15:51;;;;;;;2.30;1.03;;;7.60;99.90;;;;;;4910571;29;20469;-88
2022/01/18 04:18:33;;;;;;;5.30;1.30;;;7.40;99.90;;;;;;4906432;29;20214;-88
2022/01/18 04:28:57;;;;;;;6.00;1.23;;;7.70;99.90;;;;;;4912349;29;20469;-89
2022/01/18 04:31:24;;;;;;;3.87;1.03;;;7.90;99.90;;;;;;4906814;29;20460;-88
2022/01/18 04:33:50;;;;;;;1.90;1.43;;;7.40;99.90;;;;;;4916579;29;20456;-88
2022/01/18 04:36:16;;;;;;;4.20;1.17;;;7.70;99.90;;;;;;4914259;29;20824;-88
2022/01/18 04:38:42;;;;;;;2.30;1.17;;;7.70;99.90;;;;;;4918450;29;20224;-88
2022/01/18 04:41:12;;;;;;;2.63;0.90;;;7.70;99.90;;;;;;4917518;29;20812;-89
2022/01/18 04:49:11;;;;;;;4.30;1.13;;;7.70;99.90;;;;;;4909896;29;20480;-89
2022/01/18 04:51:42;;;;;;;2.97;1.00;;;7.80;99.90;;;;;;4916908;29;20480;-89
2022/01/18 04:54:43;;;;;;;1.93;0.90;;;7.70;99.90;;;;;;4918006;29;20453;-89
2022/01/18 04:59:57;;;;;;;2.83;0.87;;;7.70;99.90;;;;;;4912396;29;20560;-88
2022/01/18 05:02:44;;;;;;;;;;;;;;;;;;;;;
2022/01/18 05:05:22;;;;;;;4.23;1.00;;;7.80;99.90;;;;;;4906865;29;20465;-88
2022/01/18 05:07:52;;;;;;;1.40;1.00;;;7.70;99.90;;;;;;4916201;29;20453;-88
2022/01/18 05:10:20;;;;;;;1.07;0.60;;;7.70;99.90;;;;;;4925491;29;20587;-88
2022/01/18 05:12:55;;;;;;;6.40;1.17;;;7.70;99.90;;;;;;4912084;29;20456;-88
2022/01/18 05:23:31;;;;;;;2.50;0.80;;;7.70;99.90;;;;;;4912148;29;20457;-88
2022/01/18 05:26:18;;;;;;;3.13;1.30;;;7.60;99.90;;;;;;4915963;29;20463;-88
2022/01/18 05:28:43;;;;;;;6.57;1.30;;;7.40;99.90;;;;;;4918041;29;20476;-88
2022/01/18 05:31:11;;;;;;;2.67;1.17;;;7.70;99.90;;;;;;4927292;29;20499;-89
2022/01/18 05:36:44;;;;;;;4.63;1.23;;;7.60;99.90;;;;;;4916505;29;20456;-88
2022/01/18 05:39:11;;;;;;;3.30;0.80;;;7.60;99.90;;;;;;4914795;29;20563;-88
2022/01/18 05:41:41;;;;;;;4.50;1.17;;;7.60;99.90;;;;;;4919177;29;20513;-88
2022/01/18 05:44:07;;;;;;;2.57;0.90;;;7.70;99.90;;;;;;4914976;29;20456;-88
2022/01/18 05:46:33;;;;;;;4.07;1.60;;;7.50;99.90;;;;;;4928803;29;20465;-88
2022/01/18 05:49:01;;;;;;;3.30;1.47;;;7.50;99.90;;;;;;4915506;29;20472;-87
2022/01/18 05:51:40;;;;;;;3.60;1.83;;;7.50;99.90;;;;;;4908485;29;20452;-87
2022/01/18 05:54:06;;;;;;;4.73;1.43;;;7.80;99.90;;;;;;4919144;29;20504;-89
2022/01/18 05:56:33;;;;;;;6.00;2.03;;;7.50;99.90;;;;;;4913426;29;20591;-88
2022/01/18 05:59:02;;;;;;;4.27;2.23;;;7.50;99.90;;;;;;4925601;29;20213;-86
2022/01/18 06:01:47;;;;;;;7.07;2.60;;;7.40;99.90;;;;;;4927105;29;20449;-89
2022/01/18 06:06:49;;;;;;;4.97;1.77;;;7.50;99.90;;;;;;4917643;29;20465;-90
2022/01/18 06:06:59;;;;;;;7.70;2.00;;;7.40;99.90;;;;;;4914603;29;20664;-89
2022/01/18 06:09:34;;;;;;;3.30;2.23;;;7.40;99.90;;;;;;4912162;29;21006;-88
2022/01/18 06:12:00;;;;;;;16.60;3.00;;;7.50;99.90;;;;;;4911200;29;20220;-89
2022/01/18 06:14:26;;;;;;;8.37;3.00;;;7.40;99.90;;;;;;4912720;29;20918;-90
2022/01/18 06:16:51;;;;;;;5.80;3.40;;;7.70;99.90;;;;;;4906092;29;20201;-88
2022/01/18 06:19:17;;;;;;;5.40;2.80;;;7.50;99.90;;;;;;4915638;29;20216;-90
2022/01/18 06:21:42;;;;;;;6.00;2.60;;;7.50;99.90;;;;;;4911320;29;20197;-90
2022/01/18 06:24:11;;;;;;;8.40;3.40;;;7.50;99.90;;;;;;4927494;29;20227;-89
2022/01/18 06:26:37;;;;;;;10.20;3.60;;;7.50;99.90;;;;;;4913118;29;20220;-88
2022/01/18 06:29:03;;;;;;;10.77;2.83;;;7.50;99.90;;;;;;4915977;29;20472;-89
2022/01/18 06:31:29;;;;;;;10.07;3.33;;;7.80;99.90;;;;;;4913050;29;20460;-88
2022/01/18 06:33:55;;;;;;;8.10;3.07;;;7.50;99.90;;;;;;4907346;29;20559;-87
2022/01/18 06:36:21;;;;;;;8.43;3.30;;;7.50;99.90;;;;;;4915669;29;20577;-88
2022/01/18 06:38:46;;;;;;;10.70;3.50;;;7.80;99.90;;;;;;4913669;29;20216;-89
2022/01/18 06:41:12;;;;;;;11.80;3.57;;;7.60;99.90;;;;;;4915015;29;20192;-89
2022/01/18 06:43:40;;;;;;;8.53;3.70;;;7.80;99.90;;;;;;4918454;29;20634;-91
2022/01/18 06:46:06;;;;;;;11.60;3.37;;;7.60;99.90;;;;;;4912243;29;20258;-89
2022/01/18 06:48:31;;;;;;;10.07;3.70;;;7.60;99.90;;;;;;4911912;29;21079;-90
2022/01/18 06:50:57;;;;;;;10.37;3.90;;;7.60;99.90;;;;;;4916042;29;20438;-91
2022/01/18 06:53:23;;;;;;;8.43;3.90;;;7.90;99.90;;;;;;4916796;29;20461;-88
2022/01/18 06:55:54;;;;;;;8.10;3.90;;;7.70;99.90;;;;;;4930011;29;20227;-88
2022/01/18 06:58:19;;;;;;;10.77;3.57;;;7.90;99.90;;;;;;4915929;29;20229;-87
2022/01/18 07:00:45;;;;;;;9.07;2.90;;;7.70;99.90;;;;;;4920000;29;20445;-88
2022/01/18 07:03:11;;;;;;;15.37;4.10;;;8.00;99.90;;;;;;4936399;29;20197;-87
2022/01/18 07:05:37;;;;;;;5.83;3.00;;;7.90;99.90;;;;;;4924077;29;20184;-88
2022/01/18 07:08:31;;;;;;;;;;;;;;;;;;;;;
2022/01/18 07:11:13;;;;;;;9.40;3.73;;;7.90;99.90;;;;;;4916932;29;20540;-86
2022/01/18 16:31:13;;;;;;;6.03;3.80;;;7.90;99.90;;;;;;4056183;23;21364;-89
2022/01/18 20:34:22;;;;;;;11.07;7.10;;;7.60;99.90;;;;;;5859127;23;20979;-68
2022/01/18 20:36:50;;;;;;;10.13;6.50;;;7.70;99.90;;;;;;4934761;28;20554;-68
2022/01/18 20:39:15;;;;;;;9.00;6.73;;;7.60;99.90;;;;;;4937120;28;20184;-67
2022/01/18 20:44:27;;;;;;;8.97;6.63;;;7.50;99.90;;;;;;4935606;29;20326;-68
2022/01/18 20:46:59;;;;;;;11.33;6.83;;;7.50;99.90;;;;;;4919468;29;20581;-69
2022/01/18 20:49:31;;;;;;;8.60;5.87;;;7.50;99.90;;;;;;4927511;23;20443;-72
2022/01/18 20:51:57;;;;;;;8.53;6.17;;;7.60;99.90;;;;;;4930721;29;20452;-71
2022/01/18 20:54:25;;;;;;;9.90;5.67;;;7.60;99.90;;;;;;4926899;29;20465;-72
2022/01/18 20:56:53;;;;;;;9.27;5.70;;;7.60;99.90;;;;;;4925815;29;20209;-72
2022/01/18 20:59:19;;;;;;;11.07;7.13;;;7.60;99.90;;;;;;4920143;29;20467;-72
2022/01/18 21:01:46;;;;;;;9.97;7.10;;;7.60;99.90;;;;;;4900097;29;20469;-72
2022/01/18 21:04:12;;;;;;;9.40;6.67;;;7.60;99.90;;;;;;4913007;29;20956;-72
2022/01/18 21:06:40;;;;;;;10.30;6.40;;;7.60;99.90;;;;;;4902446;29;20465;-72
2022/01/18 21:09:06;;;;;;;10.90;6.60;;;7.60;99.90;;;;;;4904164;29;20199;-71
2022/01/18 21:11:35;;;;;;;9.77;7.10;;;7.60;99.90;;;;;;4908322;29;20495;-72
2022/01/18 21:14:10;;;;;;;10.10;6.80;;;7.60;99.90;;;;;;4908441;29;20509;-72
2022/01/18 21:16:36;;;;;;;10.90;7.93;;;7.60;99.90;;;;;;4906858;29;21006;-71
2022/01/18 21:19:03;;;;;;;9.43;6.63;;;7.50;99.90;;;;;;4913481;29;20451;-73
2022/01/18 21:21:30;;;;;;;13.03;8.17;;;7.50;99.90;;;;;;4905098;29;20905;-72
2022/01/18 21:24:03;;;;;;;14.63;7.70;;;7.40;99.90;;;;;;4906574;29;20555;-69
2022/01/18 21:26:29;;;;;;;16.00;9.33;;;7.40;99.90;;;;;;4904016;29;20457;-70
2022/01/18 21:28:54;;;;;;;18.23;10.27;;;7.40;99.90;;;;;;4905798;29;20453;-70
2022/01/18 21:31:25;;;;;;;19.07;10.30;;;7.40;99.90;;;;;;4908879;29;20235;-71
2022/01/18 21:33:52;;;;;;;15.37;9.70;;;7.40;99.90;;;;;;4905714;29;20196;-71
2022/01/18 21:36:20;;;;;;;15.70;9.30;;;7.40;99.90;;;;;;4910792;29;20465;-70
2022/01/18 21:38:46;;;;;;;14.57;8.60;;;7.40;99.90;;;;;;4905790;29;20596;-71
2022/01/18 21:41:11;;;;;;;9.83;7.17;;;7.40;99.90;;;;;;4909449;29;20563;-70
2022/01/18 21:43:38;;;;;;;9.67;6.70;;;7.40;99.90;;;;;;4906626;29;20273;-71
2022/01/18 21:46:06;;;;;;;9.80;6.47;;;7.40;99.90;;;;;;4911386;29;20211;-71
2022/01/18 21:48:32;;;;;;;15.60;6.43;;;7.40;99.90;;;;;;4907606;29;20457;-71
2022/01/18 21:50:57;;;;;;;10.83;6.33;;;7.40;99.90;;;;;;4905609;29;21035;-71
2022/01/18 21:53:26;;;;;;;10.40;6.87;;;7.30;99.90;;;;;;4905843;29;20885;-71
2022/01/18 21:55:56;;;;;;;13.00;6.77;;;7.20;99.90;;;;;;4905231;29;20236;-70
2022/01/18 21:58:21;;;;;;;10.27;6.80;;;7.20;99.90;;;;;;4909978;29;20452;-71
2022/01/18 22:00:47;;;;;;;10.00;6.40;;;7.20;99.90;;;;;;4904850;29;20897;-70
2022/01/18 22:03:13;;;;;;;9.00;6.37;;;7.20;99.90;;;;;;4906363;29;20244;-70
2022/01/18 22:05:38;;;;;;;9.53;6.93;;;7.20;99.90;;;;;;4907688;29;20199;-70
2022/01/18 22:08:04;;;;;;;13.10;6.80;;;7.20;99.90;;;;;;4909584;29;20246;-70
2022/01/18 22:10:30;;;;;;;9.90;6.90;;;7.20;99.90;;;;;;4907088;29;20336;-70
2022/01/18 22:12:59;;;;;;;12.30;6.40;;;7.20;99.90;;;;;;4910942;29;20187;-71
2022/01/18 22:15:27;;;;;;;11.40;7.27;;;7.20;99.90;;;;;;4911198;29;20207;-70
2022/01/18 22:17:55;;;;;;;11.87;6.90;;;7.20;99.90;;;;;;4913264;29;20535;-71
2022/01/18 22:20:23;;;;;;;12.33;6.93;;;7.20;99.90;;;;;;4912087;29;20492;-70
2022/01/18 22:22:49;;;;;;;10.80;6.97;;;7.20;99.90;;;;;;4909608;29;20464;-70
2022/01/18 22:25:20;;;;;;;11.07;7.20;;;7.20;99.90;;;;;;4911576;29;20452;-71
2022/01/18 22:27:48;;;;;;;13.80;8.33;;;7.20;99.90;;;;;;4904127;29;20683;-70
2022/01/18 22:30:17;;;;;;;11.20;6.77;;;7.20;99.90;;;;;;4913669;29;21063;-70
2022/01/18 22:32:42;;;;;;;10.10;7.10;;;7.20;99.90;;;;;;4908730;29;20504;-71
2022/01/18 22:35:12;;;;;;;14.00;7.83;;;7.20;99.90;;;;;;4914894;29;20847;-71
2022/01/18 22:37:41;;;;;;;10.87;7.40;;;7.20;99.90;;;;;;4913609;29;20475;-70
2022/01/18 22:40:19;;;;;;;12.77;7.70;;;7.20;99.90;;;;;;4901418;29;20472;-70
2022/01/18 22:42:47;;;;;;;10.80;7.33;;;7.20;99.90;;;;;;4908445;29;20535;-70
2022/01/18 22:45:15;;;;;;;11.97;7.60;;;7.20;99.90;;;;;;4905029;29;20571;-71
2022/01/18 22:47:44;;;;;;;11.30;7.80;;;7.20;99.90;;;;;;4906510;29;20459;-71
2022/01/18 22:50:18;;;;;;;13.23;8.10;;;7.20;99.90;;;;;;4903592;29;20852;-71
2022/01/18 22:52:45;;;;;;;16.70;8.40;;;7.20;99.90;;;;;;4913283;29;20444;-71
2022/01/18 22:55:11;;;;;;;13.50;7.30;;;7.20;99.90;;;;;;4906237;29;20532;-71
2022/01/18 22:57:37;;;;;;;10.93;7.87;;;7.10;99.90;;;;;;4898310;29;20444;-69
2022/01/18 23:00:13;;;;;;;15.33;7.40;;;7.10;99.90;;;;;;4904736;29;20480;-70
2022/01/18 23:02:41;;;;;;;13.80;7.43;;;7.10;99.90;;;;;;4909819;29;20984;-70
2022/01/18 23:05:17;;;;;;;11.40;7.30;;;7.10;99.90;;;;;;4905525;29;20540;-70
2022/01/18 23:07:45;;;;;;;11.60;7.20;;;7.00;99.90;;;;;;4908823;29;20445;-72
2022/01/18 23:10:15;;;;;;;14.40;8.37;;;7.00;99.90;;;;;;4907095;29;20469;-72
2022/01/18 23:12:46;;;;;;;11.63;7.13;;;7.10;99.90;;;;;;4906810;29;20508;-72
2022/01/18 23:15:15;;;;;;;11.00;7.30;;;7.00;99.90;;;;;;4907328;29;20459;-72
2022/01/18 23:17:43;;;;;;;16.30;9.03;;;7.00;99.90;;;;;;4901232;29;23294;-71
2022/01/18 23:20:09;;;;;;;11.57;7.97;;;7.10;99.90;;;;;;4905722;29;20992;-71
2022/01/18 23:22:37;;;;;;;13.73;7.40;;;7.00;99.90;;;;;;4909667;29;20508;-72
2022/01/18 23:25:03;;;;;;;14.33;8.43;;;7.10;99.90;;;;;;4905778;29;20456;-71
2022/01/18 23:27:32;;;;;;;13.60;8.47;;;7.00;99.90;;;;;;4905265;29;20458;-72
2022/01/18 23:29:58;;;;;;;16.17;8.40;;;7.00;99.90;;;;;;4912915;29;20476;-72
2022/01/18 23:32:26;;;;;;;14.53;8.93;;;7.00;99.90;;;;;;4903715;29;21014;-71
2022/01/18 23:34:54;;;;;;;12.40;8.40;;;7.30;99.90;;;;;;4907778;29;20445;-71
2022/01/18 23:37:19;;;;;;;16.83;9.23;;;7.00;99.90;;;;;;4902947;29;20452;-71
2022/01/18 23:39:58;;;;;;;16.03;8.47;;;6.90;99.90;;;;;;4912321;29;20468;-71
2022/01/18 23:42:26;;;;;;;11.60;8.07;;;6.90;99.90;;;;;;4908583;29;20181;-72
2022/01/18 23:44:59;;;;;;;13.67;8.30;;;6.90;99.90;;;;;;4904003;29;20537;-72
2022/01/18 23:47:25;;;;;;;15.87;8.53;;;6.90;99.90;;;;;;4904689;29;20471;-71
2022/01/18 23:49:53;;;;;;;15.73;9.90;;;6.90;99.90;;;;;;4904180;29;21036;-71
2022/01/18 23:52:21;;;;;;;16.97;9.30;;;6.90;99.90;;;;;;4907249;29;20185;-70
2022/01/18 23:54:49;;;;;;;14.20;10.13;;;6.80;99.90;;;;;;4906325;29;20448;-71
2022/01/18 23:57:17;;;;;;;20.43;10.53;;;6.80;99.90;;;;;;4907163;29;20488;-71
2022/01/18 23:59:45;;;;;;;19.20;10.60;;;6.70;99.90;;;;;;4910644;29;20494;-72
